Time;durP1;ratioP1;P1;durP2;ratioP2;P2;SDS_P1;SDS_P2;PMS_P1;PMS_P2;Temp;Humidity;BMP_temperature;BMP_pressure;BME280_temperature;BME280_humidity;BME280_pressure;Samples;Min_cycle;Max_cycle;Signal;HPM_P1;HPM_P2
2023/11/09 00:00:03;;;;;;;;;;;5.70;99.90;;;;;;5001762;28;20030;-94
2023/11/09 00:02:29;;;;;;;17.02;2.90;;;5.70;99.90;;;;;;5001723;28;19914;-95
2023/11/09 00:04:56;;;;;;;17.30;3.38;;;5.70;99.90;;;;;;5006271;28;20049;-94
2023/11/09 00:07:23;;;;;;;16.38;2.58;;;5.70;99.90;;;;;;4998158;28;20034;-93
2023/11/09 00:09:52;;;;;;;30.70;3.30;;;5.80;99.90;;;;;;4981197;28;20038;-92
2023/11/09 00:12:19;;;;;;;29.48;3.42;;;5.80;99.90;;;;;;4996304;28;20046;-94
2023/11/09 00:14:47;;;;;;;26.13;3.70;;;5.80;99.90;;;;;;4997412;28;20026;-93
2023/11/09 00:17:14;;;;;;;19.83;3.00;;;5.90;99.90;;;;;;4996714;28;20030;-95
2023/11/09 00:19:42;;;;;;;14.38;2.97;;;5.90;99.90;;;;;;4982974;28;20034;-94
2023/11/09 00:22:09;;;;;;;19.83;2.92;;;5.90;99.90;;;;;;4979304;28;20046;-95
2023/11/09 00:24:51;;;;;;;22.67;3.40;;;5.90;99.90;;;;;;4985970;28;20025;-96
2023/11/09 00:27:21;;;;;;;18.65;4.05;;;5.90;99.90;;;;;;4999235;28;20041;-95
2023/11/09 00:29:53;;;;;;;21.48;3.15;;;5.90;99.90;;;;;;4980427;28;20038;-93
2023/11/09 00:32:18;;;;;;;19.58;3.05;;;5.90;99.90;;;;;;4980704;28;20023;-95
2023/11/09 00:34:44;;;;;;;16.60;3.20;;;6.00;99.90;;;;;;4979490;28;20492;-96
2023/11/09 00:37:10;;;;;;;18.45;3.08;;;6.00;99.90;;;;;;4977427;28;20018;-96
2023/11/09 00:39:37;;;;;;;11.98;2.40;;;6.00;99.90;;;;;;4979282;28;20077;-94
2023/11/09 00:42:05;;;;;;;19.77;2.95;;;6.00;99.90;;;;;;4981332;28;20072;-95
2023/11/09 00:44:31;;;;;;;20.30;3.17;;;6.00;99.90;;;;;;4978847;28;20562;-95
2023/11/09 00:46:57;;;;;;;16.10;3.03;;;6.00;99.90;;;;;;4978272;28;20030;-95
2023/11/09 00:49:22;;;;;;;20.20;2.80;;;6.00;99.90;;;;;;4981635;28;20117;-95
2023/11/09 00:51:48;;;;;;;15.30;2.60;;;6.00;99.90;;;;;;4982803;28;20116;-95
2023/11/09 00:54:14;;;;;;;18.52;2.67;;;6.00;99.90;;;;;;4982601;28;20026;-95
2023/11/09 00:56:40;;;;;;;16.10;2.97;;;6.00;99.90;;;;;;4981879;28;20028;-94
2023/11/09 00:59:06;;;;;;;15.43;3.03;;;6.00;99.90;;;;;;4966454;28;20120;-95
2023/11/09 01:01:31;;;;;;;11.18;2.78;;;6.00;99.90;;;;;;4982715;28;20022;-95
2023/11/09 01:03:57;;;;;;;19.25;3.10;;;6.10;99.90;;;;;;4982636;28;20033;-95
2023/11/09 01:06:23;;;;;;;26.23;3.47;;;6.10;99.90;;;;;;4983813;28;20019;-96
2023/11/09 01:08:48;;;;;;;19.13;3.85;;;6.10;99.90;;;;;;4984014;28;20455;-93
2023/11/09 01:11:22;;;;;;;12.20;2.42;;;6.10;99.90;;;;;;4987532;28;20026;-95
2023/11/09 01:13:47;;;;;;;17.58;2.92;;;6.10;99.90;;;;;;4987897;28;20038;-94
2023/11/09 01:16:14;;;;;;;13.98;2.92;;;6.10;99.90;;;;;;4981996;28;20113;-93
2023/11/09 01:19:02;;;;;;;17.55;2.05;;;6.10;99.90;;;;;;4981634;28;20035;-94
2023/11/09 01:21:38;;;;;;;26.63;5.72;;;6.20;99.90;;;;;;4972082;28;20085;-94
2023/11/09 01:24:04;;;;;;;19.77;2.30;;;6.20;99.90;;;;;;4996182;28;20484;-95
2023/11/09 01:26:58;;;;;;;13.20;2.10;;;6.20;99.90;;;;;;4998302;28;20037;-94
2023/11/09 01:29:27;;;;;;;21.10;2.40;;;6.20;99.90;;;;;;4997664;28;20095;-94
2023/11/09 01:31:57;;;;;;;17.95;3.20;;;6.20;99.90;;;;;;4980259;28;20034;-94
2023/11/09 01:34:30;;;;;;;21.23;2.55;;;6.20;99.90;;;;;;4983871;28;20094;-93
2023/11/09 01:37:10;;;;;;;21.33;2.90;;;6.20;99.90;;;;;;4961439;28;20033;-94
2023/11/09 01:39:45;;;;;;;12.73;2.47;;;6.20;99.90;;;;;;4995327;28;20026;-92
2023/11/09 01:42:43;;;;;;;19.35;3.75;;;6.20;99.90;;;;;;4994877;28;20492;-94
2023/11/09 01:45:12;;;;;;;17.23;2.72;;;6.20;99.90;;;;;;4977302;28;20257;-93
2023/11/09 01:47:51;;;;;;;13.82;3.00;;;6.20;99.90;;;;;;4981830;28;20042;-92
2023/11/09 01:50:25;;;;;;;17.38;2.97;;;6.20;99.90;;;;;;4997493;28;20372;-95
2023/11/09 01:52:56;;;;;;;15.80;2.67;;;6.20;99.90;;;;;;4986891;28;20385;-93
2023/11/09 01:55:31;;;;;;;12.77;2.90;;;6.20;99.90;;;;;;4974005;28;20065;-94
2023/11/09 01:58:06;;;;;;;29.20;3.63;;;6.20;99.90;;;;;;4975650;28;20041;-94
2023/11/09 02:00:33;;;;;;;19.85;2.60;;;6.20;99.90;;;;;;4992082;28;20026;-94
2023/11/09 02:02:59;;;;;;;20.50;4.22;;;6.20;99.90;;;;;;4979198;28;20084;-95
2023/11/09 02:05:37;;;;;;;19.02;3.40;;;6.20;99.90;;;;;;4979957;28;20456;-95
2023/11/09 02:08:06;;;;;;;17.52;3.42;;;6.20;99.90;;;;;;4981019;28;20498;-94
2023/11/09 02:10:37;;;;;;;21.08;4.22;;;6.20;99.90;;;;;;4980965;28;20555;-94
2023/11/09 02:13:13;;;;;;;21.75;3.20;;;6.20;99.90;;;;;;4996641;28;20085;-96
2023/11/09 02:15:54;;;;;;;21.30;3.13;;;6.20;99.90;;;;;;4996260;28;20120;-94
2023/11/09 02:18:22;;;;;;;17.65;3.85;;;6.10;99.90;;;;;;4982079;28;20503;-94
2023/11/09 02:20:52;;;;;;;14.02;3.10;;;6.10;99.90;;;;;;4996200;28;20037;-94
2023/11/09 02:23:24;;;;;;;13.00;2.70;;;6.10;99.90;;;;;;4964167;28;20022;-94
2023/11/09 02:25:57;;;;;;;14.75;3.22;;;6.10;99.90;;;;;;4964090;28;20069;-96
2023/11/09 02:28:25;;;;;;;16.83;2.80;;;6.10;99.90;;;;;;4979792;28;20578;-95
2023/11/09 02:30:52;;;;;;;20.55;3.83;;;6.20;99.90;;;;;;4977382;28;20022;-96
2023/11/09 02:33:21;;;;;;;17.35;2.63;;;6.20;99.90;;;;;;4955743;28;20042;-95
2023/11/09 02:35:54;;;;;;;19.67;2.40;;;6.20;99.90;;;;;;4996254;28;20027;-94
2023/11/09 02:38:21;;;;;;;23.33;3.10;;;6.20;99.90;;;;;;4995010;28;20038;-94
2023/11/09 02:40:54;;;;;;;13.23;2.70;;;6.20;99.90;;;;;;4979294;28;20045;-95
2023/11/09 02:43:22;;;;;;;23.55;4.47;;;6.20;99.90;;;;;;4979391;28;20042;-95
2023/11/09 02:45:49;;;;;;;16.67;3.28;;;6.20;99.90;;;;;;4979477;28;20034;-94
2023/11/09 02:48:30;;;;;;;16.63;2.50;;;6.20;99.90;;;;;;4978953;28;20030;-95
2023/11/09 02:50:58;;;;;;;14.25;2.78;;;6.20;99.90;;;;;;4992001;28;20475;-95
2023/11/09 02:53:28;;;;;;;13.80;3.65;;;6.20;99.90;;;;;;4939524;28;20051;-95
2023/11/09 02:55:55;;;;;;;19.20;3.33;;;6.10;99.90;;;;;;4974323;28;20039;-95
2023/11/09 02:58:22;;;;;;;17.55;2.95;;;6.10;99.90;;;;;;4977802;28;20044;-94
2023/11/09 03:00:51;;;;;;;14.02;2.53;;;6.10;99.90;;;;;;4996887;28;20099;-95
2023/11/09 03:03:22;;;;;;;18.20;2.92;;;6.10;99.90;;;;;;4979510;28;20109;-94
2023/11/09 03:05:53;;;;;;;27.38;3.58;;;6.10;99.90;;;;;;4977188;28;20054;-94
2023/11/09 03:08:20;;;;;;;15.32;2.20;;;6.10;99.90;;;;;;4979940;28;20034;-93
2023/11/09 03:10:47;;;;;;;7.97;2.13;;;6.10;99.90;;;;;;4978556;28;20031;-95
2023/11/09 03:13:14;;;;;;;10.48;2.70;;;6.20;99.90;;;;;;4979048;28;20033;-94
2023/11/09 03:15:41;;;;;;;12.90;1.88;;;6.10;99.90;;;;;;4994291;28;20502;-94
2023/11/09 03:18:09;;;;;;;12.77;3.38;;;6.20;99.90;;;;;;4978902;28;20468;-96
2023/11/09 03:20:35;;;;;;;14.65;2.05;;;6.20;99.90;;;;;;4978988;28;20026;-96
2023/11/09 03:23:02;;;;;;;6.47;1.98;;;6.20;99.90;;;;;;4996290;28;20490;-95
2023/11/09 03:25:28;;;;;;;11.73;2.10;;;6.20;99.90;;;;;;4996043;28;20027;-94
2023/11/09 03:27:54;;;;;;;13.70;2.15;;;6.20;99.90;;;;;;4995835;28;20026;-95
2023/11/09 03:30:21;;;;;;;12.70;1.98;;;6.30;99.90;;;;;;4995836;28;20084;-96
2023/11/09 03:32:50;;;;;;;8.93;2.10;;;6.20;99.90;;;;;;4997245;28;20026;-95
2023/11/09 03:35:15;;;;;;;7.50;1.77;;;6.20;99.90;;;;;;4997465;28;20539;-95
2023/11/09 03:37:44;;;;;;;12.00;2.13;;;6.30;99.90;;;;;;4986404;28;20046;-95
2023/11/09 03:40:11;;;;;;;12.20;2.03;;;6.30;99.90;;;;;;4975520;28;20050;-94
2023/11/09 03:42:37;;;;;;;10.73;1.95;;;6.30;99.90;;;;;;4968413;28;20027;-95
2023/11/09 03:45:07;;;;;;;12.07;1.95;;;6.30;99.90;;;;;;4967037;28;20098;-94
2023/11/09 03:47:34;;;;;;;10.55;1.95;;;6.30;99.90;;;;;;4966455;28;20026;-95
2023/11/09 03:50:01;;;;;;;14.35;2.38;;;6.30;99.90;;;;;;4960428;28;20097;-94
2023/11/09 03:52:27;;;;;;;18.70;2.40;;;6.30;99.90;;;;;;4976604;28;20491;-95
2023/11/09 03:54:56;;;;;;;9.68;2.40;;;6.30;99.90;;;;;;4959828;28;20118;-95
2023/11/09 03:57:27;;;;;;;14.82;2.90;;;6.30;99.90;;;;;;4959629;28;20023;-96
2023/11/09 03:59:57;;;;;;;12.90;2.30;;;6.20;99.90;;;;;;4935400;29;20047;-95
2023/11/09 04:02:23;;;;;;;9.85;2.00;;;6.20;99.90;;;;;;4925596;29;20489;-94
2023/11/09 04:04:50;;;;;;;11.85;2.40;;;6.20;99.90;;;;;;4925213;29;20027;-95
2023/11/09 04:07:17;;;;;;;8.15;2.13;;;6.20;99.90;;;;;;4957027;28;20043;-96
2023/11/09 04:09:47;;;;;;;8.50;1.70;;;6.20;99.90;;;;;;4960708;28;20023;-94
2023/11/09 04:12:15;;;;;;;15.55;2.90;;;6.20;99.90;;;;;;4960946;28;20153;-96
2023/11/09 04:14:50;;;;;;;16.00;2.58;;;6.20;99.90;;;;;;4960617;28;20038;-94
2023/11/09 04:17:18;;;;;;;16.63;2.30;;;6.10;99.90;;;;;;4959756;28;20034;-95
2023/11/09 04:19:44;;;;;;;10.50;2.60;;;6.10;99.90;;;;;;4962051;28;20078;-95
2023/11/09 04:22:12;;;;;;;10.35;1.95;;;6.10;99.90;;;;;;4959714;28;20031;-95
2023/11/09 04:24:38;;;;;;;14.13;2.25;;;6.10;99.90;;;;;;4959857;28;20037;-95
2023/11/09 04:27:05;;;;;;;9.05;2.05;;;6.00;99.90;;;;;;4959579;28;20094;-95
2023/11/09 04:29:32;;;;;;;8.55;1.83;;;6.00;99.90;;;;;;4977950;28;20034;-94
2023/11/09 04:32:01;;;;;;;9.02;1.90;;;6.00;99.90;;;;;;4979859;28;20026;-95
2023/11/09 04:34:27;;;;;;;10.10;2.20;;;6.00;99.90;;;;;;4960905;28;20031;-95
2023/11/09 04:36:53;;;;;;;16.27;2.50;;;6.00;99.90;;;;;;4958825;28;20523;-95
2023/11/09 04:39:29;;;;;;;11.88;1.88;;;5.90;99.90;;;;;;4960602;28;20090;-96
2023/11/09 04:42:01;;;;;;;14.73;2.30;;;5.90;99.90;;;;;;4976673;28;20065;-95
2023/11/09 04:44:29;;;;;;;8.75;2.03;;;5.90;99.90;;;;;;4994771;28;20031;-94
2023/11/09 04:47:03;;;;;;;10.90;1.88;;;5.90;99.90;;;;;;4978631;28;20018;-96
2023/11/09 04:49:29;;;;;;;9.32;2.15;;;5.90;99.90;;;;;;4978798;28;20031;-95
2023/11/09 04:52:04;;;;;;;11.60;2.00;;;5.90;99.90;;;;;;4979228;28;20149;-96
2023/11/09 04:54:45;;;;;;;7.15;1.88;;;5.90;99.90;;;;;;4995840;28;20042;-96
2023/11/09 05:08:40;;;;;;;11.30;1.80;;;5.90;99.90;;;;;;5002670;28;20665;-94
2023/11/09 05:11:11;;;;;;;8.15;1.80;;;5.90;99.90;;;;;;4984110;28;20031;-94
2023/11/09 05:13:36;;;;;;;9.82;1.88;;;5.90;99.90;;;;;;4980287;28;20200;-95
2023/11/09 05:16:03;;;;;;;11.98;1.95;;;5.90;99.90;;;;;;4978763;28;20595;-94
2023/11/09 05:18:28;;;;;;;11.80;2.10;;;5.90;99.90;;;;;;4972774;28;20368;-95
2023/11/09 05:20:55;;;;;;;9.77;1.83;;;5.90;99.90;;;;;;4993814;28;20022;-93
2023/11/09 05:23:20;;;;;;;10.70;2.58;;;5.90;99.90;;;;;;4977563;28;20035;-94
2023/11/09 05:25:54;;;;;;;9.38;1.52;;;5.90;99.90;;;;;;4994069;28;20038;-95
2023/11/09 05:28:21;;;;;;;8.13;1.50;;;5.90;99.90;;;;;;4977609;28;20435;-96
2023/11/09 05:30:50;;;;;;;8.88;1.90;;;5.90;99.90;;;;;;4977597;28;20391;-95
2023/11/09 05:33:19;;;;;;;6.90;1.67;;;5.90;99.90;;;;;;4995057;28;20030;-93
2023/11/09 05:35:45;;;;;;;8.02;1.90;;;5.90;99.90;;;;;;4997132;28;20392;-94
2023/11/09 05:38:11;;;;;;;9.68;2.22;;;5.90;99.90;;;;;;4998421;28;20157;-95
2023/11/09 05:40:42;;;;;;;6.00;1.77;;;5.90;99.90;;;;;;4980580;28;20046;-95
2023/11/09 05:43:11;;;;;;;8.90;1.70;;;5.90;99.90;;;;;;4978292;28;20416;-95
2023/11/09 05:45:37;;;;;;;13.75;2.05;;;5.90;99.90;;;;;;4998453;28;20029;-94
2023/11/09 05:48:04;;;;;;;7.32;1.50;;;5.90;99.90;;;;;;4981337;28;20026;-95
2023/11/09 05:50:32;;;;;;;4.43;1.58;;;5.90;99.90;;;;;;4982007;28;20034;-94
2023/11/09 05:53:07;;;;;;;8.95;1.58;;;5.90;99.90;;;;;;4979161;28;20399;-95
2023/11/09 05:55:35;;;;;;;8.18;1.90;;;5.90;99.90;;;;;;4981608;28;20090;-95
2023/11/09 05:58:03;;;;;;;9.80;2.00;;;5.90;99.90;;;;;;4984276;28;20106;-96
2023/11/09 06:00:34;;;;;;;11.18;2.97;;;5.90;99.90;;;;;;4980077;28;20050;-95
2023/11/09 06:03:01;;;;;;;10.93;2.13;;;5.90;99.90;;;;;;4985414;28;20038;-94
2023/11/09 06:05:50;;;;;;;8.45;1.70;;;5.90;99.90;;;;;;4982935;28;20033;-93
2023/11/09 06:08:19;;;;;;;17.90;2.50;;;5.90;99.90;;;;;;4978009;28;20030;-93
2023/11/09 06:10:49;;;;;;;7.93;2.13;;;5.90;99.90;;;;;;4980192;28;20080;-95
2023/11/09 06:13:20;;;;;;;14.82;2.20;;;5.90;99.90;;;;;;4976968;28;20042;-94
2023/11/09 06:15:57;;;;;;;7.35;2.17;;;5.90;99.90;;;;;;4961949;28;20026;-94
2023/11/09 06:18:24;;;;;;;7.13;2.05;;;5.90;99.90;;;;;;4998421;28;20061;-95
2023/11/09 06:20:53;;;;;;;6.35;1.77;;;5.90;99.90;;;;;;4975875;28;20041;-95
2023/11/09 06:23:19;;;;;;;10.40;2.00;;;5.90;99.90;;;;;;4963428;28;20038;-96
2023/11/09 06:25:45;;;;;;;11.80;2.50;;;5.90;99.90;;;;;;4996052;28;20121;-95
2023/11/09 06:28:12;;;;;;;5.70;2.00;;;5.90;99.90;;;;;;4996549;28;20030;-95
2023/11/09 06:30:40;;;;;;;6.93;2.10;;;5.90;99.90;;;;;;4979962;28;20030;-95
2023/11/09 06:33:11;;;;;;;6.00;1.63;;;5.90;99.90;;;;;;5001672;28;20035;-95
2023/11/09 06:35:41;;;;;;;8.57;1.90;;;5.90;99.90;;;;;;4986103;28;20110;-95
2023/11/09 06:38:10;;;;;;;7.20;1.60;;;5.90;99.90;;;;;;4964541;28;20038;-94
2023/11/09 06:40:38;;;;;;;11.18;2.08;;;5.80;99.90;;;;;;4996985;28;20297;-93
2023/11/09 06:43:05;;;;;;;6.13;1.95;;;5.80;99.90;;;;;;4964032;28;20130;-95
2023/11/09 06:45:36;;;;;;;13.80;2.70;;;5.90;99.90;;;;;;4979096;28;20068;-95
2023/11/09 06:48:02;;;;;;;;;;;5.80;99.90;;;;;;4987268;28;20049;-94
2023/11/09 06:50:27;;;;;;;14.45;2.20;;;5.90;99.90;;;;;;4981672;28;19906;-95
2023/11/09 06:52:55;;;;;;;8.23;1.80;;;5.90;99.90;;;;;;4997907;28;20545;-96
2023/11/09 06:55:24;;;;;;;13.43;2.28;;;5.90;99.90;;;;;;4980750;28;20037;-95
2023/11/09 06:57:54;;;;;;;11.80;2.35;;;5.90;99.90;;;;;;4981181;28;20030;-94
2023/11/09 07:00:24;;;;;;;8.50;1.90;;;5.90;99.90;;;;;;4980362;28;20057;-95
2023/11/09 07:02:53;;;;;;;10.33;3.57;;;5.90;99.90;;;;;;4979956;28;20031;-94
2023/11/09 07:05:24;;;;;;;7.97;2.47;;;5.90;99.90;;;;;;4978983;28;20029;-93
2023/11/09 07:07:56;;;;;;;7.45;2.03;;;6.00;99.90;;;;;;4992623;28;20019;-93
2023/11/09 07:10:22;;;;;;;10.40;1.70;;;6.00;99.90;;;;;;4982571;28;20054;-95
2023/11/09 07:12:48;;;;;;;5.38;1.50;;;6.00;99.90;;;;;;4978651;28;20034;-92
2023/11/09 07:15:15;;;;;;;14.18;2.17;;;6.00;99.90;;;;;;4978716;28;20076;-93
2023/11/09 07:17:43;;;;;;;8.65;1.80;;;6.00;99.90;;;;;;4996088;28;20050;-93
2023/11/09 07:20:10;;;;;;;9.32;1.70;;;6.00;99.90;;;;;;4978437;28;20045;-94
2023/11/09 07:22:36;;;;;;;5.57;1.70;;;6.00;99.90;;;;;;4989184;28;20033;-94
2023/11/09 07:25:03;;;;;;;7.00;1.70;;;6.00;99.90;;;;;;4979100;28;20023;-94
2023/11/09 07:27:28;;;;;;;7.00;2.05;;;6.00;99.90;;;;;;4994704;28;20380;-94
2023/11/09 07:29:57;;;;;;;6.68;1.90;;;6.00;99.90;;;;;;4978458;28;20018;-95
2023/11/09 07:32:25;;;;;;;5.88;1.50;;;6.00;99.90;;;;;;4947295;28;20399;-96
2023/11/09 07:35:02;;;;;;;8.65;1.50;;;6.00;99.90;;;;;;4959945;28;20159;-95
2023/11/09 07:37:29;;;;;;;13.07;1.80;;;6.00;99.90;;;;;;4966999;28;20031;-94
2023/11/09 07:39:55;;;;;;;9.60;2.20;;;6.10;99.90;;;;;;4994013;28;20038;-93
2023/11/09 07:42:22;;;;;;;13.18;2.03;;;6.10;99.90;;;;;;4985215;28;20047;-94
2023/11/09 07:45:00;;;;;;;12.55;2.75;;;6.10;99.90;;;;;;4973383;28;20073;-94
2023/11/09 07:47:25;;;;;;;11.15;1.60;;;6.10;99.90;;;;;;4959097;28;20137;-94
2023/11/09 07:49:54;;;;;;;8.30;3.60;;;6.10;99.90;;;;;;4960003;28;20454;-93
2023/11/09 07:52:29;;;;;;;10.02;1.98;;;6.10;99.90;;;;;;4958804;28;20042;-93
2023/11/09 07:54:58;;;;;;;5.22;1.40;;;6.10;99.90;;;;;;4975664;28;20070;-92
2023/11/09 07:57:24;;;;;;;10.85;2.08;;;6.10;99.90;;;;;;4959101;28;20469;-93
2023/11/09 07:59:49;;;;;;;6.03;2.05;;;6.10;99.90;;;;;;4975838;28;20057;-93
2023/11/09 08:02:15;;;;;;;8.32;1.80;;;6.10;99.90;;;;;;4977971;28;20113;-91
2023/11/09 08:04:41;;;;;;;11.45;1.65;;;6.10;99.90;;;;;;4978228;28;20034;-93
2023/11/09 08:07:09;;;;;;;7.38;2.25;;;6.10;99.90;;;;;;4995525;28;20018;-94
2023/11/09 08:09:38;;;;;;;6.93;1.85;;;6.10;99.90;;;;;;4978160;28;20026;-94
2023/11/09 08:12:06;;;;;;;6.45;1.90;;;6.20;99.90;;;;;;4992152;28;20154;-92
2023/11/09 08:15:01;;;;;;;7.03;1.52;;;6.10;99.90;;;;;;4977392;28;20377;-93
2023/11/09 08:17:39;;;;;;;10.40;1.85;;;6.20;99.90;;;;;;4989042;28;20046;-94
2023/11/09 08:20:13;;;;;;;8.93;1.70;;;6.20;99.90;;;;;;4974712;28;20034;-94
2023/11/09 08:22:46;;;;;;;7.45;1.90;;;6.20;99.90;;;;;;4979316;28;20033;-94
2023/11/09 08:25:33;;;;;;;9.23;1.60;;;6.20;99.90;;;;;;4995803;28;20109;-94
2023/11/09 08:28:02;;;;;;;4.75;1.35;;;6.20;99.90;;;;;;4963040;28;20498;-95
2023/11/09 08:30:28;;;;;;;3.72;1.20;;;6.30;99.90;;;;;;4976944;28;20042;-95
2023/11/09 08:32:55;;;;;;;3.50;1.45;;;6.20;99.90;;;;;;4999938;28;20030;-94
2023/11/09 08:35:24;;;;;;;7.10;1.42;;;6.20;99.90;;;;;;4989965;28;20090;-94
2023/11/09 08:37:52;;;;;;;6.15;1.85;;;6.30;99.90;;;;;;4992239;28;20026;-94
2023/11/09 08:40:18;;;;;;;8.50;1.88;;;6.30;99.90;;;;;;4991563;28;20050;-92
2023/11/09 08:42:48;;;;;;;4.25;1.52;;;6.30;99.90;;;;;;4975137;28;20031;-95
2023/11/09 08:45:21;;;;;;;9.52;2.35;;;6.30;99.90;;;;;;4972721;28;20023;-94
2023/11/09 08:47:52;;;;;;;7.45;1.80;;;6.30;99.90;;;;;;4983841;28;20023;-94
2023/11/09 08:50:22;;;;;;;5.25;1.08;;;6.30;99.90;;;;;;4990224;28;20027;-94
2023/11/09 08:52:53;;;;;;;6.10;1.10;;;6.30;99.90;;;;;;4957193;28;20038;-94
2023/11/09 08:55:20;;;;;;;2.95;0.95;;;6.40;99.90;;;;;;4976534;28;20121;-92
2023/11/09 08:57:47;;;;;;;3.33;0.90;;;6.40;99.90;;;;;;4969005;28;20038;-94
2023/11/09 09:00:23;;;;;;;1.73;0.90;;;6.40;99.90;;;;;;4985431;28;20534;-93
2023/11/09 09:02:51;;;;;;;3.05;1.15;;;6.40;99.90;;;;;;4953559;28;20027;-95
2023/11/09 09:05:19;;;;;;;5.25;1.20;;;6.50;99.90;;;;;;4976646;28;20106;-94
2023/11/09 09:07:48;;;;;;;4.30;1.30;;;6.40;99.90;;;;;;4979095;28;20019;-95
2023/11/09 09:10:17;;;;;;;6.40;1.10;;;6.50;99.90;;;;;;4999576;28;20014;-94
2023/11/09 09:13:00;;;;;;;2.80;1.08;;;6.50;99.90;;;;;;4983924;28;20019;-94
2023/11/09 09:15:29;;;;;;;5.75;1.00;;;6.50;99.90;;;;;;5000556;28;20110;-94
2023/11/09 09:18:02;;;;;;;5.72;1.10;;;6.50;99.90;;;;;;4970526;28;20058;-94
2023/11/09 09:20:28;;;;;;;5.28;1.20;;;6.50;99.90;;;;;;4983835;28;20065;-94
2023/11/09 09:22:56;;;;;;;6.30;2.03;;;6.60;99.90;;;;;;4977789;28;20034;-94
2023/11/09 09:25:25;;;;;;;7.75;1.10;;;6.60;99.90;;;;;;4972362;28;20034;-94
2023/11/09 09:27:55;;;;;;;7.33;1.20;;;6.70;99.90;;;;;;4985227;28;20023;-93
2023/11/09 09:30:26;;;;;;;8.07;1.40;;;6.80;99.90;;;;;;4967058;28;20023;-93
2023/11/09 09:32:53;;;;;;;5.60;1.33;;;6.90;99.90;;;;;;4965547;28;20034;-93
2023/11/09 09:35:26;;;;;;;5.22;1.15;;;6.90;99.90;;;;;;4964993;28;20027;-94
2023/11/09 09:37:53;;;;;;;7.47;1.52;;;7.00;99.90;;;;;;4965496;28;20030;-93
2023/11/09 09:40:23;;;;;;;6.32;0.93;;;7.10;99.90;;;;;;4967881;28;20038;-94
2023/11/09 09:42:54;;;;;;;3.22;1.10;;;7.20;99.90;;;;;;4993583;28;20033;-93
2023/11/09 09:45:22;;;;;;;3.63;1.02;;;7.30;99.90;;;;;;4981427;28;20233;-93
2023/11/09 09:47:50;;;;;;;8.00;1.10;;;7.50;99.90;;;;;;4986816;28;20023;-94
2023/11/09 09:50:17;;;;;;;6.47;1.23;;;7.50;99.90;;;;;;4982374;28;20400;-93
2023/11/09 09:52:49;;;;;;;3.80;1.30;;;7.60;99.90;;;;;;4981702;28;20041;-95
2023/11/09 09:55:21;;;;;;;6.82;1.15;;;7.70;99.90;;;;;;4982428;28;20057;-94
2023/11/09 09:57:50;;;;;;;6.13;1.10;;;7.80;99.90;;;;;;4980625;28;20022;-94
2023/11/09 10:00:23;;;;;;;4.78;1.13;;;7.80;99.90;;;;;;4981420;28;20033;-93
2023/11/09 10:02:51;;;;;;;10.02;1.60;;;7.90;99.90;;;;;;4980784;28;20022;-95
2023/11/09 10:05:17;;;;;;;7.05;0.90;;;7.80;99.90;;;;;;4999738;28;20026;-95
2023/11/09 10:08:05;;;;;;;3.75;0.80;;;7.80;99.90;;;;;;4998838;28;20057;-95
2023/11/09 10:10:34;;;;;;;3.20;1.10;;;7.80;99.90;;;;;;4975354;28;20030;-92
2023/11/09 10:13:02;;;;;;;6.05;1.10;;;7.90;99.90;;;;;;4981525;28;20038;-95
2023/11/09 10:15:43;;;;;;;6.63;1.25;;;8.00;99.90;;;;;;4992334;28;20018;-94
2023/11/09 10:18:13;;;;;;;6.22;1.00;;;8.20;99.90;;;;;;4986107;28;20046;-95
2023/11/09 10:20:42;;;;;;;7.40;1.15;;;8.30;99.90;;;;;;4998858;28;20026;-95
2023/11/09 10:23:20;;;;;;;5.05;0.95;;;8.50;99.90;;;;;;4984510;28;20491;-95
2023/11/09 10:25:53;;;;;;;3.55;1.60;;;8.70;99.90;;;;;;4981763;28;20049;-96
2023/11/09 10:28:24;;;;;;;3.30;0.90;;;9.10;99.90;;;;;;4983728;28;20045;-96
2023/11/09 10:31:02;;;;;;;3.30;0.90;;;9.40;99.90;;;;;;4981082;28;20022;-94
2023/11/09 10:33:34;;;;;;;3.15;0.80;;;9.70;99.90;;;;;;4980173;28;20085;-96
2023/11/09 10:36:18;;;;;;;5.45;0.93;;;9.90;99.90;;;;;;4981423;28;20027;-95
2023/11/09 10:42:08;;;;;;;2.30;0.63;;;9.90;99.90;;;;;;5286615;23;20467;-95
2023/11/09 10:44:34;;;;;;;5.97;0.90;;;9.90;99.90;;;;;;4955130;29;20540;-95
2023/11/09 10:47:09;;;;;;;5.18;0.57;;;10.00;99.90;;;;;;4939562;29;20026;-96
2023/11/09 10:50:06;;;;;;;2.10;0.70;;;10.30;99.90;;;;;;4933779;29;20107;-94
2023/11/09 10:52:43;;;;;;;4.30;0.93;;;10.70;99.90;;;;;;4939770;29;20028;-95
2023/11/09 10:55:47;;;;;;;5.68;0.88;;;10.90;99.90;;;;;;4924291;29;20036;-94
2023/11/09 10:58:23;;;;;;;6.40;0.70;;;11.10;99.90;;;;;;4941089;29;20106;-94
2023/11/09 11:01:36;;;;;;;1.88;0.85;;;11.10;99.90;;;;;;4939344;29;20407;-94
2023/11/09 11:04:09;;;;;;;7.47;1.00;;;10.90;99.90;;;;;;4922056;29;20055;-94
2023/11/09 11:06:56;;;;;;;4.57;1.30;;;10.50;99.90;;;;;;4935493;29;20489;-95
2023/11/09 11:09:44;;;;;;;4.60;0.77;;;10.40;99.90;;;;;;4936870;29;20079;-95
2023/11/09 11:12:23;;;;;;;5.22;0.90;;;10.30;99.90;;;;;;4935666;29;20047;-95
2023/11/09 11:15:00;;;;;;;5.22;1.00;;;10.50;99.90;;;;;;4938474;29;20036;-94
2023/11/09 11:17:39;;;;;;;2.63;0.75;;;10.80;99.90;;;;;;4922467;29;20032;-95
2023/11/09 11:20:40;;;;;;;2.88;0.70;;;11.00;99.90;;;;;;4921257;29;20512;-94
2023/11/09 11:23:28;;;;;;;2.78;0.93;;;11.20;99.90;;;;;;4937639;29;20028;-93
2023/11/09 11:29:58;;;;;;;6.95;1.10;;;11.70;99.90;;;;;;4849729;29;20029;-94
2023/11/09 11:32:59;;;;;;;3.45;0.95;;;11.80;99.90;;;;;;4853952;29;20061;-95
2023/11/09 11:46:17;;;;;;;4.47;1.10;;;10.90;99.90;;;;;;4824492;29;20056;-94
2023/11/09 11:48:33;;;;;;;4.45;0.88;;;10.70;99.90;;;;;;4861953;29;20089;-93
2023/11/09 11:51:31;;;;;;;4.18;1.15;;;10.80;99.90;;;;;;4847161;29;20038;-95
2023/11/09 11:53:58;;;;;;;4.60;0.65;;;10.70;99.90;;;;;;4857391;29;20132;-95
2023/11/09 11:56:35;;;;;;;3.47;0.60;;;10.90;99.90;;;;;;4877651;29;20177;-94
2023/11/09 11:59:13;;;;;;;1.77;0.55;;;11.10;99.90;;;;;;4933827;29;20039;-94
2023/11/09 12:02:19;;;;;;;;;;;;;;;;;;;;;
2023/11/09 12:05:15;;;;;;;;;;;11.60;99.90;;;;;;4900772;29;20041;-95
2023/11/09 12:08:32;;;;;;;7.50;0.85;;;11.50;99.90;;;;;;4965283;28;19914;-94
2023/11/09 12:11:09;;;;;;;5.93;0.80;;;11.50;99.90;;;;;;4934569;29;20046;-95
2023/11/09 12:13:49;;;;;;;4.28;0.98;;;11.50;99.90;;;;;;4941780;29;20047;-95
2023/11/09 12:16:43;;;;;;;11.70;1.00;;;11.70;99.90;;;;;;4952051;29;20032;-94
2023/11/09 12:19:22;;;;;;;5.97;1.40;;;12.00;99.90;;;;;;4949718;29;20126;-95
2023/11/09 12:21:56;;;;;;;9.02;0.98;;;12.10;99.90;;;;;;4954639;29;20748;-94
2023/11/09 12:24:28;;;;;;;5.80;0.90;;;12.30;99.90;;;;;;4956475;29;20046;-95
2023/11/09 12:27:13;;;;;;;6.28;1.08;;;12.50;99.90;;;;;;4940525;29;20110;-93
2023/11/09 12:30:27;;;;;;;5.28;0.63;;;12.60;99.80;;;;;;4956888;28;20512;-96
2023/11/09 12:32:59;;;;;;;3.47;0.93;;;12.50;98.10;;;;;;4936564;29;20031;-93
2023/11/09 12:35:26;;;;;;;3.28;0.88;;;12.40;97.80;;;;;;4938174;29;20552;-94
2023/11/09 12:38:29;;;;;;;4.05;0.60;;;12.30;98.20;;;;;;4939803;29;20095;-96
2023/11/09 12:41:09;;;;;;;4.13;0.82;;;12.10;98.10;;;;;;4954275;29;20027;-94
2023/11/09 12:44:01;;;;;;;3.47;0.80;;;11.80;98.10;;;;;;4952651;28;20580;-92
2023/11/09 12:46:48;;;;;;;;;;;;;;;;;;;;;
2023/11/09 12:53:27;;;;;;;8.00;0.98;;;11.60;99.60;;;;;;4893193;29;20029;-93
2023/11/09 12:56:00;;;;;;;5.22;0.80;;;11.50;99.70;;;;;;4896918;29;20379;-94
2023/11/09 12:58:34;;;;;;;4.95;0.98;;;11.30;99.50;;;;;;4868893;29;20049;-95
2023/11/09 13:01:04;;;;;;;6.15;0.95;;;11.10;99.40;;;;;;4900932;29;20028;-94
2023/11/09 13:03:58;;;;;;;6.75;1.92;;;11.10;99.90;;;;;;4901268;29;20088;-95
2023/11/09 13:06:32;;;;;;;7.65;1.20;;;11.00;99.90;;;;;;4887477;29;20521;-94
2023/11/09 13:18:27;;;;;;;3.42;0.55;;;10.20;99.80;;;;;;4882941;29;20025;-94
2023/11/09 13:21:15;;;;;;;5.63;1.48;;;10.00;99.90;;;;;;4911079;29;20036;-95
2023/11/09 13:23:58;;;;;;;3.22;0.75;;;9.80;99.90;;;;;;4893594;29;20036;-95
2023/11/09 13:26:34;;;;;;;4.85;0.70;;;9.70;99.90;;;;;;4894756;29;20103;-93
2023/11/09 13:29:15;;;;;;;3.60;0.98;;;9.70;99.90;;;;;;4922325;29;20032;-96
2023/11/09 13:31:41;;;;;;;;;;;9.60;99.90;;;;;;4907665;29;20115;-93
2023/11/09 13:34:07;;;;;;;7.22;0.90;;;9.40;99.90;;;;;;4904949;29;19962;-95
2023/11/09 13:39:34;;;;;;;6.95;0.90;;;9.30;99.90;;;;;;4927358;29;20111;-94
2023/11/09 13:45:39;;;;;;;5.03;0.73;;;9.20;99.90;;;;;;4889877;29;20110;-94
2023/11/09 14:01:00;;;;;;;21.67;3.53;;;9.00;99.90;;;;;;4901269;29;20530;-95
2023/11/09 14:03:45;;;;;;;9.38;2.95;;;8.90;99.90;;;;;;4916230;29;20071;-95
2023/11/09 14:06:20;;;;;;;5.63;1.40;;;8.80;99.90;;;;;;4918777;29;20040;-94
2023/11/09 14:08:58;;;;;;;8.80;1.75;;;8.80;99.90;;;;;;4902791;29;20036;-95
2023/11/09 14:15:26;;;;;;;10.32;1.50;;;8.80;99.90;;;;;;4826177;29;20161;-94
2023/11/09 14:18:26;;;;;;;12.10;2.70;;;8.80;99.90;;;;;;4815304;29;20609;-93
2023/11/09 14:20:52;;;;;;;22.70;7.28;;;8.70;99.90;;;;;;4807054;29;20601;-95
2023/11/09 14:23:18;;;;;;;7.47;1.85;;;8.70;99.90;;;;;;4811590;29;20027;-95
2023/11/09 14:25:44;;;;;;;8.32;3.15;;;8.70;99.90;;;;;;4807691;29;20038;-95